EGEC/CAL METAR and TAF weather

Enter ICAO airport designator
Station Type Date Time Source
EGEC METAR 2022/08/16 16:20 UTC NOAA

EGEC 161620Z 33015KT 9999 FEW030 OVC043 15/11 Q1013


Station Type Date Time Source
EGEC Decoded METAR 2022/08/16 16:20 UTC NOAA

Campbeltown, United Kingdom (EGEC) 55-26-14N 005-41-11W
Aug 16, 2022 - 12:20 PM EDT / 2022.08.16 1620 UTC
Wind: from the NNW (330 degrees) at 17 MPH (15 KT):0
Visibility: greater than 7 mile(s):0
Sky conditions: overcast
Temperature: 59 F (15 C)
Dew Point: 51 F (11 C)
Relative Humidity: 76%
Pressure (altimeter): 29.91 in. Hg (1013 hPa)
ob: EGEC 161620Z 33015KT 9999 FEW030 OVC043 15/11 Q1013
cycle: 16

Station Type Date Time Source
EGEC TAF UTC NOAA

Error!

Example: see airport list